createdAt,value
2023-03-15T00:02:24.498Z,98725.59
2023-03-15T00:04:54.833Z,98748.13
2023-03-15T00:07:25.820Z,98748.13
2023-03-15T00:09:54.266Z,98754.56
2023-03-15T00:12:23.965Z,98761.00
2023-03-15T00:14:52.570Z,98761.19
2023-03-15T00:17:22.730Z,98764.91
2023-03-15T00:19:50.777Z,98768.44
2023-03-15T00:22:18.788Z,98773.19
2023-03-15T00:24:46.912Z,98780.47
2023-03-15T00:27:14.864Z,98784.19
2023-03-15T00:29:44.743Z,98786.06
2023-03-15T00:32:12.796Z,98771.16
2023-03-15T00:34:40.896Z,98794.16
2023-03-15T00:37:09.238Z,98778.63
2023-03-15T00:39:39.660Z,98813.22
2023-03-15T00:42:09.566Z,98808.88
2023-03-15T00:44:37.566Z,98816.13
2023-03-15T00:47:07.183Z,98817.81
2023-03-15T00:49:35.071Z,98826.09
2023-03-15T00:52:03.205Z,98822.53
2023-03-15T00:54:33.454Z,98831.47
2023-03-15T00:57:02.216Z,98810.34
2023-03-15T00:59:34.760Z,98834.38
2023-03-15T01:02:02.849Z,98838.94
2023-03-15T01:04:32.800Z,98852.22
2023-03-15T01:07:00.987Z,98850.56
2023-03-15T01:09:30.536Z,98859.50
2023-03-15T01:11:58.672Z,98860.31
2023-03-15T01:14:26.646Z,98864.91
2023-03-15T01:16:54.575Z,98871.94
2023-03-15T01:19:22.740Z,98877.34
2023-03-15T01:21:52.064Z,98882.75
2023-03-15T01:24:20.048Z,98882.50
2023-03-15T01:26:49.982Z,98889.38
2023-03-15T01:29:17.976Z,98899.16
2023-03-15T01:31:46.007Z,98876.19
2023-03-15T01:34:14.025Z,98900.16
2023-03-15T01:36:42.145Z,98902.84
2023-03-15T01:39:11.623Z,98907.03
2023-03-15T01:41:44.921Z,98910.94
2023-03-15T01:44:15.745Z,98902.84
2023-03-15T01:46:45.033Z,98914.50
2023-03-15T01:49:25.057Z,98912.63
2023-03-15T01:51:57.113Z,98917.19
2023-03-15T01:54:30.517Z,98915.50
2023-03-15T01:57:02.111Z,98921.75
2023-03-15T01:59:33.110Z,98917.19
2023-03-15T02:02:01.969Z,98922.59
2023-03-15T02:04:35.026Z,98927.97
2023-03-15T02:07:04.633Z,98930.88
2023-03-15T02:09:45.331Z,98930.88
2023-03-15T02:12:13.451Z,98936.28
2023-03-15T02:14:44.056Z,98935.25
2023-03-15T02:17:15.689Z,98948.72
2023-03-15T02:19:56.507Z,98929.94
2023-03-15T02:22:33.337Z,98956.66
2023-03-15T02:25:10.785Z,98955.59
2023-03-15T02:27:41.873Z,98963.06
2023-03-15T02:30:12.811Z,98964.75
2023-03-15T02:32:43.406Z,98969.31
2023-03-15T02:35:11.608Z,98970.16
2023-03-15T02:37:39.718Z,98977.19
2023-03-15T02:40:18.919Z,98972.56
2023-03-15T02:42:51.945Z,98984.44
2023-03-15T02:45:20.747Z,98980.94
2023-03-15T02:47:50.132Z,98992.53
2023-03-15T02:50:18.612Z,98988.84
2023-03-15T02:52:46.560Z,98991.72
2023-03-15T02:55:14.564Z,98993.59
2023-03-15T02:57:42.528Z,98997.13
2023-03-15T03:00:14.736Z,98990.69
2023-03-15T03:02:46.144Z,98994.59
2023-03-15T03:05:15.964Z,99007.25
2023-03-15T03:07:44.641Z,99016.19
2023-03-15T03:10:17.059Z,99018.72
2023-03-15T03:12:57.054Z,99001.69
2023-03-15T03:15:38.220Z,99029.03
2023-03-15T03:18:06.425Z,99030.91
2023-03-15T03:20:34.529Z,99035.28
2023-03-15T03:23:06.640Z,99033.59
2023-03-15T03:25:36.850Z,99036.13
2023-03-15T03:28:05.030Z,99042.53
2023-03-15T03:30:36.037Z,99044.22
2023-03-15T03:33:05.879Z,99038.81
2023-03-15T03:35:33.860Z,99047.72
2023-03-15T03:38:01.825Z,99051.47
2023-03-15T03:40:35.213Z,99055.81
2023-03-15T03:43:04.260Z,99063.09
2023-03-15T03:45:32.425Z,99052.59
2023-03-15T03:48:01.422Z,99071.19
2023-03-15T03:50:31.841Z,99067.66
2023-03-15T03:52:59.986Z,99070.53
2023-03-15T03:55:33.995Z,99073.22
2023-03-15T03:58:02.061Z,99071.56
2023-03-15T04:00:41.740Z,99076.13
2023-03-15T04:03:10.916Z,99080.31
2023-03-15T04:05:43.755Z,99056.69
2023-03-15T04:08:16.225Z,99078.25
2023-03-15T04:10:44.520Z,99088.03
2023-03-15T04:13:12.745Z,99080.78
2023-03-15T04:15:41.262Z,99089.91
2023-03-15T04:18:10.713Z,99089.06
2023-03-15T04:20:46.678Z,99092.59
2023-03-15T04:23:15.272Z,99099.69
2023-03-15T04:26:01.834Z,99098.00
2023-03-15T04:28:48.840Z,99098.00
2023-03-15T04:31:37.760Z,99094.28
2023-03-15T04:34:20.982Z,99100.50
2023-03-15T04:37:03.684Z,99103.00
2023-03-15T04:39:42.785Z,99093.06
2023-03-15T04:42:29.543Z,99101.34
2023-03-15T04:45:28.401Z,99108.59
2023-03-15T04:48:22.106Z,99120.22
2023-03-15T04:51:09.925Z,99113.97
2023-03-15T04:53:51.910Z,99119.22
2023-03-15T04:56:36.651Z,99121.91
2023-03-15T04:59:11.164Z,99137.06
2023-03-15T05:02:17.282Z,99120.22
2023-03-15T05:05:04.153Z,99134.75
2023-03-15T05:07:46.535Z,99136.63
2023-03-15T05:10:38.709Z,99138.25
2023-03-15T05:13:24.034Z,99139.09
2023-03-15T05:16:12.775Z,99142.84
2023-03-15T05:18:51.833Z,99148.25
2023-03-15T05:21:40.221Z,99143.03
2023-03-15T05:24:27.050Z,99151.97
2023-03-15T05:27:16.620Z,99153.81
2023-03-15T05:30:12.166Z,99163.13
2023-03-15T05:32:58.528Z,99170.38
2023-03-15T05:35:41.519Z,99170.38
2023-03-15T05:38:32.789Z,99168.72
2023-03-15T05:41:09.714Z,99175.78
2023-03-15T05:44:05.138Z,99121.38
2023-03-15T05:47:02.353Z,99191.50
2023-03-15T05:49:46.443Z,99197.06
2023-03-15T05:52:40.627Z,99200.81
2023-03-15T05:55:19.684Z,99205.16
2023-03-15T05:58:07.231Z,99204.31
2023-03-15T06:00:55.174Z,99212.41
2023-03-15T06:03:42.152Z,99211.59
2023-03-15T06:06:18.110Z,99217.81
2023-03-15T06:08:46.094Z,99222.84
2023-03-15T06:11:14.128Z,99234.31
2023-03-15T06:13:42.074Z,99226.59
2023-03-15T06:16:18.988Z,99238.69
2023-03-15T06:18:49.762Z,99247.63
2023-03-15T06:21:17.766Z,99256.72
2023-03-15T06:23:45.806Z,99261.75
2023-03-15T06:26:15.027Z,99264.16
2023-03-15T06:28:43.154Z,99271.53
2023-03-15T06:31:12.394Z,99273.19
2023-03-15T06:33:51.016Z,99275.75
2023-03-15T06:36:18.962Z,99278.44
2023-03-15T06:38:46.885Z,99287.19
2023-03-15T06:41:15.571Z,99279.72
2023-03-15T06:43:43.876Z,99278.72
2023-03-15T06:46:12.988Z,99272.28
2023-03-15T06:48:41.785Z,99282.91
2023-03-15T06:51:12.997Z,99268.66
2023-03-15T06:53:41.011Z,99289.63
2023-03-15T06:56:09.057Z,99284.88
2023-03-15T06:58:36.983Z,99289.09
2023-03-15T07:01:05.308Z,99289.72
2023-03-15T07:03:33.262Z,99292.25
2023-03-15T07:06:01.203Z,99301.19
2023-03-15T07:08:30.778Z,99305.56
2023-03-15T07:10:58.776Z,99305.56
2023-03-15T07:13:27.053Z,99301.81
2023-03-15T07:15:55.264Z,99302.66
2023-03-15T07:18:23.992Z,99287.19
2023-03-15T07:20:57.430Z,99303.00
2023-03-15T07:23:25.575Z,99301.13
2023-03-15T07:25:55.861Z,99290.38
2023-03-15T07:28:25.880Z,99304.13
2023-03-15T08:04:53.243Z,99351.31
2023-03-15T08:07:21.228Z,99353.50
2023-03-15T08:09:49.134Z,99352.94
2023-03-15T08:12:17.134Z,99354.22
2023-03-15T08:14:45.061Z,99359.28
2023-03-15T08:17:13.205Z,99370.56
2023-03-15T08:19:41.202Z,99370.19
2023-03-15T08:22:11.236Z,99376.03
2023-03-15T08:24:39.368Z,99373.19
2023-03-15T08:27:07.558Z,99380.72
2023-03-15T08:29:35.505Z,99385.09
2023-03-15T08:32:03.536Z,99392.00
2023-03-15T08:34:32.721Z,99383.53
2023-03-15T08:37:01.197Z,99399.34
2023-03-15T08:39:30.585Z,99397.97
2023-03-15T08:41:58.486Z,99388.84
2023-03-15T08:44:26.448Z,99398.44
2023-03-15T08:46:54.497Z,99404.53
2023-03-15T08:49:22.688Z,99402.28
2023-03-15T08:51:51.067Z,99407.16
2023-03-15T08:54:19.088Z,99408.44
2023-03-15T08:56:48.378Z,99415.63
2023-03-15T08:59:25.553Z,99419.66
2023-03-15T09:01:58.927Z,99423.66
2023-03-15T09:04:27.103Z,99433.06
2023-03-15T09:06:55.061Z,99418.97
2023-03-15T09:09:23.526Z,99431.09
2023-03-15T09:11:52.773Z,99431.56
2023-03-15T09:14:20.756Z,99432.41
2023-03-15T09:16:48.695Z,99433.91
2023-03-15T09:19:16.710Z,99452.47
2023-03-15T09:21:47.178Z,99449.56
2023-03-15T09:24:15.412Z,99458.31
2023-03-15T09:26:43.426Z,99461.50
2023-03-15T09:29:12.755Z,99458.59
2023-03-15T09:31:40.629Z,99468.59
2023-03-15T09:34:08.623Z,99469.78
2023-03-15T09:36:36.527Z,99475.50
2023-03-15T09:39:04.693Z,99485.28
2023-03-15T09:41:44.589Z,99485.13
2023-03-15T09:44:29.036Z,99495.97
2023-03-15T09:47:08.934Z,99504.22
2023-03-15T09:49:46.926Z,99505.41
2023-03-15T09:52:28.609Z,99502.91
2023-03-15T09:55:01.169Z,99514.75
2023-03-15T09:57:40.039Z,99522.50
2023-03-15T10:00:14.574Z,99514.19
2023-03-15T10:02:48.823Z,99518.59
2023-03-15T10:05:22.066Z,99484.44
2023-03-15T10:07:50.083Z,99519.25
2023-03-15T10:10:20.214Z,99523.44
2023-03-15T10:12:53.896Z,99531.41
2023-03-15T10:15:32.820Z,99523.94
2023-03-15T10:18:28.712Z,99528.13
2023-03-15T10:21:04.780Z,99533.34
2023-03-15T10:23:41.334Z,99537.09
2023-03-15T10:26:15.556Z,99539.13
2023-03-15T10:28:44.918Z,99550.25
2023-03-15T10:31:22.389Z,99563.59
2023-03-15T10:33:58.516Z,99541.53
2023-03-15T10:36:27.206Z,99566.28
2023-03-15T10:38:55.219Z,99558.16
2023-03-15T10:41:31.378Z,99567.97
2023-03-15T10:44:03.155Z,99576.25
2023-03-15T10:46:32.842Z,99581.50
2023-03-15T10:49:09.161Z,99574.97
2023-03-15T10:51:41.634Z,99582.53
2023-03-15T10:54:14.404Z,99593.16
2023-03-15T10:56:47.938Z,99589.78
2023-03-15T10:59:18.316Z,99600.63
2023-03-15T11:01:50.267Z,99599.59
2023-03-15T11:04:21.464Z,99605.88
2023-03-15T11:06:51.776Z,99602.97
2023-03-15T11:09:23.342Z,99605.66
2023-03-15T11:11:58.452Z,99602.75
2023-03-15T11:14:27.198Z,99616.28
2023-03-15T11:17:00.030Z,99617.97
2023-03-15T11:19:29.976Z,99621.34
2023-03-15T11:22:00.989Z,99630.13
2023-03-15T11:24:30.825Z,99618.63
2023-03-15T11:27:01.663Z,99637.22
2023-03-15T11:29:32.770Z,99640.75
2023-03-15T11:32:06.536Z,99639.56
2023-03-15T11:34:41.531Z,99643.75
2023-03-15T11:37:17.600Z,99654.22
2023-03-15T11:39:58.799Z,99645.88
2023-03-15T11:42:34.907Z,99648.44
2023-03-15T11:45:07.320Z,99664.66
2023-03-15T11:47:44.017Z,99677.16
2023-03-15T11:50:15.289Z,99672.59
2023-03-15T11:52:44.468Z,99678.00
2023-03-15T11:55:19.452Z,99689.84
2023-03-15T11:57:49.327Z,99682.56
2023-03-15T12:00:52.829Z,99683.41
2023-03-15T12:03:35.435Z,99701.38
2023-03-15T12:06:26.977Z,99701.53
2023-03-15T12:08:56.491Z,99699.88
2023-03-15T12:11:41.790Z,99705.44
2023-03-15T12:14:29.098Z,99705.44
2023-03-15T12:17:38.573Z,99712.91
2023-03-15T12:20:19.707Z,99677.25
2023-03-15T12:22:52.095Z,99716.84
2023-03-15T12:25:24.436Z,99698.88
2023-03-15T12:27:55.134Z,99717.84
2023-03-15T12:30:26.735Z,99730.56
2023-03-15T12:32:57.155Z,99741.41
2023-03-15T12:35:32.210Z,99742.22
2023-03-15T12:38:03.088Z,99738.56
2023-03-15T12:40:41.963Z,99703.38
2023-03-15T12:43:13.491Z,99746.97
2023-03-15T12:45:46.541Z,99747.81
2023-03-15T12:48:22.592Z,99746.97
2023-03-15T12:50:56.064Z,99753.22
2023-03-15T12:53:36.983Z,99757.81
2023-03-15T12:56:32.636Z,99763.41
2023-03-15T12:59:11.350Z,99767.13
2023-03-15T13:01:39.403Z,99770.75
2023-03-15T13:04:07.544Z,99778.16
2023-03-15T13:06:46.919Z,99779.81
2023-03-15T13:09:27.005Z,99782.53
2023-03-15T13:12:00.770Z,99778.81
2023-03-15T13:14:39.214Z,99793.00
2023-03-15T13:17:19.606Z,99801.09
2023-03-15T13:19:52.886Z,99802.81
2023-03-15T13:22:31.867Z,99799.91
2023-03-15T13:25:09.860Z,99812.59
2023-03-15T13:27:47.917Z,99814.47
2023-03-15T13:30:34.831Z,99821.56
2023-03-15T13:33:06.221Z,99819.03
2023-03-15T13:35:34.943Z,99825.66
2023-03-15T13:38:23.077Z,99831.06
2023-03-15T13:40:51.395Z,99824.31
2023-03-15T13:43:19.713Z,99833.94
2023-03-15T13:45:47.830Z,99838.53
2023-03-15T13:48:15.778Z,99842.25
2023-03-15T13:50:49.268Z,99845.81
2023-03-15T13:53:35.647Z,99854.78
2023-03-15T13:56:16.592Z,99848.69
2023-03-15T13:58:44.788Z,99859.50
2023-03-15T14:01:15.584Z,99855.16
2023-03-15T14:03:44.388Z,99854.47
2023-03-15T14:06:22.158Z,99861.75
2023-03-15T14:08:55.697Z,99868.19
2023-03-15T14:11:37.185Z,99865.47
2023-03-15T14:14:21.858Z,99872.75
2023-03-15T14:17:04.225Z,99872.09
2023-03-15T14:19:35.182Z,99876.50
2023-03-15T14:22:05.056Z,99864.03
2023-03-15T14:24:37.612Z,99879.19
2023-03-15T14:27:09.206Z,99891.88
2023-03-15T14:29:38.596Z,99899.16
2023-03-15T14:32:08.722Z,99896.25
2023-03-15T14:34:38.578Z,99905.41
2023-03-15T14:37:27.589Z,99906.25
2023-03-15T14:40:07.786Z,99906.25
2023-03-15T14:42:35.837Z,99911.00
2023-03-15T14:45:03.765Z,99915.75
2023-03-15T14:47:32.631Z,99925.56
2023-03-15T14:50:01.591Z,99924.91
2023-03-15T14:52:29.693Z,99920.66
2023-03-15T14:54:59.019Z,99931.31
2023-03-15T14:57:26.870Z,99935.03
2023-03-15T14:59:54.998Z,99935.88
2023-03-15T15:02:23.101Z,99936.72
2023-03-15T15:04:51.284Z,99939.59
2023-03-15T15:07:20.594Z,99941.50
2023-03-15T15:09:51.721Z,99945.22
2023-03-15T15:12:21.143Z,99947.25
2023-03-15T15:14:49.079Z,99950.81
2023-03-15T15:17:17.080Z,99944.72
2023-03-15T15:19:46.961Z,99954.03
2023-03-15T15:22:15.543Z,99953.66
2023-03-15T15:24:44.679Z,99946.59
2023-03-15T15:27:13.323Z,99967.38
2023-03-15T15:29:42.640Z,99965.88
2023-03-15T15:32:10.618Z,99971.41
2023-03-15T15:34:40.803Z,99977.69
2023-03-15T15:37:11.282Z,99977.56
2023-03-15T15:39:39.269Z,99985.81
2023-03-15T15:42:07.479Z,99983.09
2023-03-15T15:44:35.590Z,99990.34
2023-03-15T15:47:05.087Z,99989.53
2023-03-15T15:49:32.986Z,99994.09
2023-03-15T15:52:01.043Z,100011.19
2023-03-15T15:54:30.633Z,100016.75
2023-03-15T15:57:00.509Z,100010.34
2023-03-15T15:59:28.548Z,100016.94
2023-03-15T16:02:01.063Z,100022.34
2023-03-15T16:04:32.924Z,100000.25
2023-03-15T16:07:03.582Z,100035.03
2023-03-15T16:09:35.740Z,100044.16
2023-03-15T16:12:04.238Z,100038.09
2023-03-15T16:14:32.285Z,100047.03
2023-03-15T16:17:00.241Z,100053.31
2023-03-15T16:19:28.297Z,100055.81
2023-03-15T16:21:57.600Z,100049.56
2023-03-15T16:24:30.141Z,100063.09
2023-03-15T16:27:03.211Z,100061.25
2023-03-15T16:29:36.576Z,100076.16
2023-03-15T16:32:16.549Z,100074.78
2023-03-15T16:34:47.945Z,100086.28
2023-03-15T16:37:19.244Z,100091.69
2023-03-15T16:39:50.318Z,100098.28
2023-03-15T16:42:19.600Z,100104.53
2023-03-15T16:44:48.634Z,100104.88
2023-03-15T16:47:16.593Z,100113.19
2023-03-15T16:49:44.719Z,100119.59
2023-03-15T16:52:16.081Z,100126.19
2023-03-15T16:54:48.451Z,100131.78
2023-03-15T16:57:21.796Z,100141.56
2023-03-15T16:59:50.215Z,100139.22
2023-03-15T17:02:20.022Z,100105.78
2023-03-15T17:04:48.217Z,100137.88
2023-03-15T17:07:17.505Z,100154.75
2023-03-15T17:09:48.705Z,100151.91
2023-03-15T17:12:23.428Z,100158.16
2023-03-15T17:14:52.665Z,100163.72
2023-03-15T17:17:20.864Z,100162.06
2023-03-15T17:19:49.196Z,100168.47
2023-03-15T17:22:18.400Z,100169.47
2023-03-15T17:24:49.780Z,100179.97
2023-03-15T17:27:27.338Z,100181.66
2023-03-15T17:29:55.341Z,100163.25
2023-03-15T17:32:23.383Z,100186.75
2023-03-15T17:34:51.435Z,100186.75
2023-03-15T17:37:20.314Z,100204.16
2023-03-15T17:39:49.797Z,100208.38
2023-03-15T17:42:19.011Z,100205.69
2023-03-15T17:44:46.963Z,100213.78
2023-03-15T17:47:15.108Z,100216.50
2023-03-15T17:49:43.068Z,100217.31
2023-03-15T17:52:15.290Z,100193.16
2023-03-15T17:54:43.153Z,100230.69
2023-03-15T17:57:14.043Z,100230.69
2023-03-15T17:59:42.114Z,100236.09
2023-03-15T18:02:15.681Z,100235.44
2023-03-15T18:04:43.708Z,100235.59
2023-03-15T18:07:11.740Z,100241.00
2023-03-15T18:09:39.787Z,100245.41
2023-03-15T18:12:10.630Z,100251.47
2023-03-15T18:14:39.981Z,100249.63
2023-03-15T18:17:07.890Z,100257.75
2023-03-15T18:19:35.869Z,100264.00
2023-03-15T18:22:03.972Z,100263.16
2023-03-15T18:24:34.298Z,100264.16
2023-03-15T18:27:02.692Z,100264.16
2023-03-15T18:29:31.758Z,100262.97
2023-03-15T18:32:01.202Z,100276.00
2023-03-15T18:34:29.244Z,100265.00
2023-03-15T18:36:57.179Z,100278.88
2023-03-15T18:39:25.335Z,100290.72
2023-03-15T18:41:53.304Z,100293.44
2023-03-15T18:44:21.275Z,100297.13
2023-03-15T18:46:49.446Z,100298.97
2023-03-15T18:49:18.809Z,100308.81
2023-03-15T18:51:46.794Z,100311.50
2023-03-15T18:54:14.888Z,100322.34
2023-03-15T18:56:43.190Z,100324.19
2023-03-15T18:59:12.127Z,100323.50
2023-03-15T19:01:40.227Z,100327.22
2023-03-15T19:04:08.256Z,100330.94
2023-03-15T19:06:37.817Z,100336.34
2023-03-15T19:09:05.897Z,100343.78
2023-03-15T19:11:38.121Z,100351.03
2023-03-15T19:14:06.071Z,100354.78
2023-03-15T19:16:34.064Z,100353.06
2023-03-15T19:19:02.386Z,100358.66
2023-03-15T19:21:30.298Z,100370.34
2023-03-15T19:23:59.679Z,100368.63
2023-03-15T19:26:27.692Z,100371.66
2023-03-15T19:28:56.271Z,100378.78
2023-03-15T19:31:24.480Z,100378.78
2023-03-15T19:33:52.541Z,100382.47
2023-03-15T19:36:22.105Z,100380.81
2023-03-15T19:38:50.006Z,100386.22
2023-03-15T19:41:19.403Z,100393.28
2023-03-15T19:43:47.343Z,100393.63
2023-03-15T19:46:17.236Z,100395.50
2023-03-15T19:48:45.191Z,100397.34
2023-03-15T19:51:13.296Z,100400.38
2023-03-15T19:53:41.221Z,100403.94
2023-03-15T19:56:10.613Z,100408.50
2023-03-15T19:58:39.879Z,100403.22
2023-03-15T20:01:07.928Z,100415.22
2023-03-15T20:03:36.024Z,100414.41
2023-03-15T20:06:08.720Z,100420.81
2023-03-15T20:08:36.878Z,100417.41
2023-03-15T20:11:05.289Z,100425.34
2023-03-15T20:13:33.619Z,100416.56
2023-03-15T20:16:03.163Z,100426.53
2023-03-15T20:18:31.476Z,100431.09
2023-03-15T20:20:59.461Z,100430.41
2023-03-15T20:23:28.228Z,100429.41
2023-03-15T20:26:05.391Z,100436.50
2023-03-15T20:28:33.556Z,100441.09
2023-03-15T20:31:07.406Z,100437.34
2023-03-15T20:33:35.590Z,100437.66
2023-03-15T20:36:03.766Z,100447.50
2023-03-15T20:38:34.264Z,100428.75
2023-03-15T20:41:02.325Z,100448.47
2023-03-15T20:43:30.283Z,100449.66
2023-03-15T20:46:00.234Z,100456.44
2023-03-15T20:48:30.266Z,100464.56
2023-03-15T20:50:58.741Z,100461.00
2023-03-15T20:53:26.970Z,100464.72
2023-03-15T20:55:54.929Z,100472.69
2023-03-15T20:58:22.973Z,100478.09
2023-03-15T21:00:51.163Z,100478.09
2023-03-15T21:03:19.448Z,100481.63
2023-03-15T21:05:48.747Z,100482.47
2023-03-15T21:08:17.408Z,100484.34
2023-03-15T21:10:45.480Z,100485.50
2023-03-15T21:13:13.412Z,100491.59
2023-03-15T21:15:45.735Z,100495.31
2023-03-15T21:18:15.561Z,100501.75
2023-03-15T21:20:43.606Z,100503.59
2023-03-15T21:23:13.022Z,100501.75
2023-03-15T21:25:41.215Z,100495.94
2023-03-15T21:28:09.281Z,100505.44
2023-03-15T21:30:39.869Z,100507.16
2023-03-15T21:33:08.096Z,100516.25
2023-03-15T21:35:36.160Z,100515.72
2023-03-15T21:38:04.410Z,100523.69
2023-03-15T21:40:33.777Z,100526.38
2023-03-15T21:43:01.910Z,100538.19
2023-03-15T21:45:29.802Z,100537.53
2023-03-15T21:47:57.961Z,100540.22
2023-03-15T21:50:26.627Z,100534.97
2023-03-15T21:52:54.927Z,100542.25
2023-03-15T21:55:22.996Z,100556.75
2023-03-15T21:57:52.767Z,100552.19
2023-03-15T22:00:23.788Z,100559.63
2023-03-15T22:02:55.608Z,100556.94
2023-03-15T22:05:24.500Z,100564.19
2023-03-15T22:07:52.411Z,100566.00
2023-03-15T22:10:22.106Z,100558.78
2023-03-15T22:12:50.118Z,100572.28
2023-03-15T22:15:19.679Z,100579.38
2023-03-15T22:17:47.689Z,100580.41
2023-03-15T22:20:16.917Z,100584.94
2023-03-15T22:22:45.358Z,100553.69
2023-03-15T22:25:13.431Z,100585.25
2023-03-15T22:27:42.187Z,100602.13
2023-03-15T22:30:13.559Z,100603.84
2023-03-15T22:32:44.318Z,100598.63
2023-03-15T22:35:12.777Z,100610.41
2023-03-15T22:37:40.997Z,100614.13
2023-03-15T22:40:11.037Z,100618.69
2023-03-15T22:42:39.016Z,100624.94
2023-03-15T22:45:08.058Z,100627.63
2023-03-15T22:47:36.143Z,100628.50
2023-03-15T22:50:05.981Z,100638.13
2023-03-15T22:52:33.923Z,100628.66
2023-03-15T22:55:01.825Z,100635.75
2023-03-15T22:57:29.789Z,100637.63
2023-03-15T22:59:58.645Z,100645.88
2023-03-15T23:02:26.802Z,100650.28
2023-03-15T23:04:54.966Z,100651.28
2023-03-15T23:07:24.301Z,100655.84
2023-03-15T23:09:52.280Z,100656.00
2023-03-15T23:12:27.139Z,100663.25
2023-03-15T23:15:04.013Z,100666.13
2023-03-15T23:17:32.331Z,100667.13
2023-03-15T23:20:00.336Z,100671.53
2023-03-15T23:22:30.787Z,100679.66
2023-03-15T23:24:58.795Z,100680.63
2023-03-15T23:27:26.958Z,100677.06
2023-03-15T23:29:55.441Z,100681.50
2023-03-15T23:32:24.937Z,100686.03
2023-03-15T23:34:53.537Z,100651.78
2023-03-15T23:37:22.342Z,100680.81
2023-03-15T23:39:53.352Z,100680.63
2023-03-15T23:42:25.672Z,100689.59
2023-03-15T23:44:54.604Z,100688.91
2023-03-15T23:47:23.404Z,100697.84
2023-03-15T23:49:51.838Z,100696.16
2023-03-15T23:52:20.230Z,100696.16
2023-03-15T23:54:48.364Z,100698.88
2023-03-15T23:57:18.200Z,100709.69
2023-03-15T23:59:46.207Z,100714.22
